sensor_id;sensor_type;location;lat;lon;timestamp;pressure;altitude;pressure_sealevel;temperature;humidity
34482;BME280;20720;48.886;9.388;2023-07-24T00:00:08;97646.25;;;21.31;100.00
34482;BME280;20720;48.886;9.388;2023-07-24T00:02:34;97685.88;;;20.62;100.00
34482;BME280;20720;48.886;9.388;2023-07-24T00:04:59;97722.88;;;20.40;100.00
34482;BME280;20720;48.886;9.388;2023-07-24T00:07:24;97735.69;;;21.10;100.00
34482;BME280;20720;48.886;9.388;2023-07-24T00:09:50;97625.03;;;20.88;100.00
34482;BME280;20720;48.886;9.388;2023-07-24T00:12:15;97483.91;;;19.51;100.00
34482;BME280;20720;48.886;9.388;2023-07-24T00:14:40;97593.28;;;20.24;100.00
34482;BME280;20720;48.886;9.388;2023-07-24T00:17:06;97639.91;;;19.93;100.00
34482;BME280;20720;48.886;9.388;2023-07-24T00:19:31;97600.13;;;20.40;100.00
34482;BME280;20720;48.886;9.388;2023-07-24T00:21:56;97599.28;;;20.73;100.00
34482;BME280;20720;48.886;9.388;2023-07-24T00:24:21;97606.31;;;21.16;100.00
34482;BME280;20720;48.886;9.388;2023-07-24T00:26:47;97621.78;;;21.43;100.00
34482;BME280;20720;48.886;9.388;2023-07-24T00:29:12;97583.16;;;20.83;100.00
34482;BME280;20720;48.886;9.388;2023-07-24T00:31:37;97576.94;;;20.64;100.00
34482;BME280;20720;48.886;9.388;2023-07-24T00:34:02;97563.53;;;20.69;100.00
34482;BME280;20720;48.886;9.388;2023-07-24T00:36:28;97543.72;;;20.46;100.00
34482;BME280;20720;48.886;9.388;2023-07-24T00:38:53;97552.63;;;20.37;100.00
34482;BME280;20720;48.886;9.388;2023-07-24T00:41:18;97553.81;;;20.78;100.00
34482;BME280;20720;48.886;9.388;2023-07-24T00:43:43;97522.94;;;20.43;100.00
34482;BME280;20720;48.886;9.388;2023-07-24T00:46:10;97538.53;;;20.31;100.00
34482;BME280;20720;48.886;9.388;2023-07-24T00:48:37;97538.88;;;20.25;100.00
34482;BME280;20720;48.886;9.388;2023-07-24T00:51:02;97524.72;;;20.24;100.00
34482;BME280;20720;48.886;9.388;2023-07-24T00:53:28;97521.03;;;20.15;100.00
34482;BME280;20720;48.886;9.388;2023-07-24T00:55:53;97514.16;;;20.09;100.00
34482;BME280;20720;48.886;9.388;2023-07-24T00:58:19;97504.41;;;19.95;100.00
34482;BME280;20720;48.886;9.388;2023-07-24T01:00:44;97510.22;;;20.02;100.00
34482;BME280;20720;48.886;9.388;2023-07-24T01:03:10;97509.41;;;20.35;100.00
34482;BME280;20720;48.886;9.388;2023-07-24T01:05:37;97521.94;;;20.63;100.00
34482;BME280;20720;48.886;9.388;2023-07-24T01:08:04;97511.34;;;20.82;100.00
34482;BME280;20720;48.886;9.388;2023-07-24T01:10:29;97523.09;;;20.57;100.00
34482;BME280;20720;48.886;9.388;2023-07-24T01:12:59;97518.44;;;20.68;100.00
34482;BME280;20720;48.886;9.388;2023-07-24T01:15:34;97508.63;;;20.34;100.00
34482;BME280;20720;48.886;9.388;2023-07-24T01:18:04;97505.72;;;20.31;100.00
34482;BME280;20720;48.886;9.388;2023-07-24T01:20:32;97501.84;;;20.13;100.00
34482;BME280;20720;48.886;9.388;2023-07-24T01:25:44;97491.81;;;20.34;100.00
34482;BME280;20720;48.886;9.388;2023-07-24T01:28:10;97497.03;;;20.44;100.00
34482;BME280;20720;48.886;9.388;2023-07-24T01:30:35;97488.75;;;20.17;100.00
34482;BME280;20720;48.886;9.388;2023-07-24T01:33:01;97493.88;;;20.08;100.00
34482;BME280;20720;48.886;9.388;2023-07-24T01:35:27;97491.66;;;20.49;100.00
34482;BME280;20720;48.886;9.388;2023-07-24T01:37:55;97507.97;;;20.71;100.00
34482;BME280;20720;48.886;9.388;2023-07-24T01:40:21;97496.88;;;20.35;100.00
34482;BME280;20720;48.886;9.388;2023-07-24T01:42:47;97498.72;;;20.35;100.00
34482;BME280;20720;48.886;9.388;2023-07-24T01:45:13;97492.47;;;20.21;100.00
34482;BME280;20720;48.886;9.388;2023-07-24T01:47:38;97506.44;;;20.36;100.00
34482;BME280;20720;48.886;9.388;2023-07-24T01:50:04;97507.97;;;20.19;100.00
34482;BME280;20720;48.886;9.388;2023-07-24T01:52:29;97512.72;;;20.27;100.00
34482;BME280;20720;48.886;9.388;2023-07-24T01:54:55;97511.50;;;20.09;100.00
34482;BME280;20720;48.886;9.388;2023-07-24T01:57:20;97518.31;;;20.54;100.00
34482;BME280;20720;48.886;9.388;2023-07-24T01:59:45;97512.56;;;20.42;100.00
34482;BME280;20720;48.886;9.388;2023-07-24T02:02:10;97507.50;;;20.07;100.00
34482;BME280;20720;48.886;9.388;2023-07-24T02:04:36;97515.09;;;19.90;100.00
34482;BME280;20720;48.886;9.388;2023-07-24T02:07:01;97507.84;;;19.95;100.00
34482;BME280;20720;48.886;9.388;2023-07-24T02:09:26;97507.78;;;19.72;100.00
34482;BME280;20720;48.886;9.388;2023-07-24T02:11:51;97502.16;;;20.07;100.00
34482;BME280;20720;48.886;9.388;2023-07-24T02:14:17;97513.41;;;20.04;100.00
34482;BME280;20720;48.886;9.388;2023-07-24T02:16:43;97499.81;;;20.34;100.00
34482;BME280;20720;48.886;9.388;2023-07-24T02:19:08;97507.91;;;20.24;100.00
34482;BME280;20720;48.886;9.388;2023-07-24T02:21:34;97503.84;;;19.98;100.00
34482;BME280;20720;48.886;9.388;2023-07-24T02:23:59;97489.75;;;20.26;100.00
34482;BME280;20720;48.886;9.388;2023-07-24T02:26:24;97507.50;;;20.07;100.00
34482;BME280;20720;48.886;9.388;2023-07-24T02:28:49;97499.53;;;20.35;100.00
34482;BME280;20720;48.886;9.388;2023-07-24T02:31:15;97496.34;;;20.33;100.00
34482;BME280;20720;48.886;9.388;2023-07-24T02:33:41;97498.66;;;20.45;100.00
34482;BME280;20720;48.886;9.388;2023-07-24T02:36:06;97505.19;;;20.29;100.00
34482;BME280;20720;48.886;9.388;2023-07-24T02:38:31;97510.53;;;20.29;100.00
34482;BME280;20720;48.886;9.388;2023-07-24T02:40:57;97517.56;;;20.48;100.00
34482;BME280;20720;48.886;9.388;2023-07-24T02:43:22;97514.28;;;20.28;100.00
34482;BME280;20720;48.886;9.388;2023-07-24T02:45:47;97520.66;;;20.84;100.00
34482;BME280;20720;48.886;9.388;2023-07-24T02:48:13;97510.25;;;20.59;100.00
34482;BME280;20720;48.886;9.388;2023-07-24T02:50:38;97509.03;;;20.18;100.00
34482;BME280;20720;48.886;9.388;2023-07-24T02:53:03;97513.94;;;20.87;100.00
34482;BME280;20720;48.886;9.388;2023-07-24T02:55:29;97502.19;;;20.64;100.00
34482;BME280;20720;48.886;9.388;2023-07-24T02:57:55;97499.72;;;20.44;100.00
34482;BME280;20720;48.886;9.388;2023-07-24T03:00:20;97496.38;;;20.00;100.00
34482;BME280;20720;48.886;9.388;2023-07-24T03:02:45;97490.44;;;20.36;100.00
34482;BME280;20720;48.886;9.388;2023-07-24T03:05:10;97491.69;;;20.44;100.00
34482;BME280;20720;48.886;9.388;2023-07-24T03:07:36;97481.38;;;21.08;100.00
34482;BME280;20720;48.886;9.388;2023-07-24T03:10:02;97482.84;;;20.96;100.00
34482;BME280;20720;48.886;9.388;2023-07-24T03:12:27;97482.97;;;21.09;100.00
34482;BME280;20720;48.886;9.388;2023-07-24T03:14:52;97491.06;;;21.04;100.00
34482;BME280;20720;48.886;9.388;2023-07-24T03:17:18;97487.50;;;21.32;100.00
34482;BME280;20720;48.886;9.388;2023-07-24T03:19:43;97486.81;;;20.27;100.00
34482;BME280;20720;48.886;9.388;2023-07-24T03:22:08;97468.69;;;20.95;100.00
34482;BME280;20720;48.886;9.388;2023-07-24T03:24:34;97473.03;;;20.91;100.00
34482;BME280;20720;48.886;9.388;2023-07-24T03:27:00;97488.19;;;20.48;100.00
34482;BME280;20720;48.886;9.388;2023-07-24T03:29:26;97482.78;;;21.62;100.00
34482;BME280;20720;48.886;9.388;2023-07-24T03:31:51;97474.97;;;21.46;100.00
34482;BME280;20720;48.886;9.388;2023-07-24T03:34:17;97462.34;;;21.71;100.00
34482;BME280;20720;48.886;9.388;2023-07-24T03:36:42;97470.31;;;21.38;100.00
34482;BME280;20720;48.886;9.388;2023-07-24T03:39:09;97485.09;;;21.68;100.00
34482;BME280;20720;48.886;9.388;2023-07-24T03:41:35;97475.66;;;21.38;100.00
34482;BME280;20720;48.886;9.388;2023-07-24T03:44:00;97483.16;;;21.55;100.00
34482;BME280;20720;48.886;9.388;2023-07-24T03:46:25;97485.03;;;21.54;100.00
34482;BME280;20720;48.886;9.388;2023-07-24T03:48:50;97483.88;;;21.23;100.00
34482;BME280;20720;48.886;9.388;2023-07-24T03:51:16;97492.53;;;21.34;100.00
34482;BME280;20720;48.886;9.388;2023-07-24T03:53:41;97493.19;;;20.79;100.00
34482;BME280;20720;48.886;9.388;2023-07-24T03:56:07;97491.50;;;21.11;100.00
34482;BME280;20720;48.886;9.388;2023-07-24T03:58:32;97483.06;;;21.41;100.00
34482;BME280;20720;48.886;9.388;2023-07-24T04:00:57;97488.94;;;21.43;100.00
34482;BME280;20720;48.886;9.388;2023-07-24T04:03:22;97490.22;;;21.65;100.00
34482;BME280;20720;48.886;9.388;2023-07-24T04:05:48;97491.81;;;21.66;100.00
34482;BME280;20720;48.886;9.388;2023-07-24T04:08:13;97486.41;;;21.89;100.00
34482;BME280;20720;48.886;9.388;2023-07-24T04:10:38;97487.03;;;22.00;100.00
34482;BME280;20720;48.886;9.388;2023-07-24T04:13:04;97487.44;;;22.07;100.00
34482;BME280;20720;48.886;9.388;2023-07-24T04:15:29;97481.09;;;22.03;100.00
34482;BME280;20720;48.886;9.388;2023-07-24T04:17:54;97486.38;;;22.08;100.00
34482;BME280;20720;48.886;9.388;2023-07-24T04:20:19;97480.75;;;20.69;100.00
34482;BME280;20720;48.886;9.388;2023-07-24T04:22:45;97466.38;;;21.68;100.00
34482;BME280;20720;48.886;9.388;2023-07-24T04:25:11;97473.69;;;21.44;100.00
34482;BME280;20720;48.886;9.388;2023-07-24T04:27:36;97467.75;;;21.84;100.00
34482;BME280;20720;48.886;9.388;2023-07-24T04:30:02;97465.06;;;22.03;100.00
34482;BME280;20720;48.886;9.388;2023-07-24T04:32:27;97459.84;;;21.93;100.00
34482;BME280;20720;48.886;9.388;2023-07-24T04:34:53;97457.16;;;22.25;100.00
34482;BME280;20720;48.886;9.388;2023-07-24T04:37:18;97449.44;;;22.37;100.00
34482;BME280;20720;48.886;9.388;2023-07-24T04:39:44;97432.66;;;21.35;100.00
34482;BME280;20720;48.886;9.388;2023-07-24T04:42:09;97438.97;;;21.95;100.00
34482;BME280;20720;48.886;9.388;2023-07-24T04:44:35;97436.91;;;22.05;100.00
34482;BME280;20720;48.886;9.388;2023-07-24T04:47:00;97418.13;;;22.51;100.00
34482;BME280;20720;48.886;9.388;2023-07-24T04:49:28;97419.50;;;22.35;100.00
34482;BME280;20720;48.886;9.388;2023-07-24T04:51:54;97425.19;;;22.74;100.00
34482;BME280;20720;48.886;9.388;2023-07-24T04:54:19;97426.44;;;22.36;100.00
34482;BME280;20720;48.886;9.388;2023-07-24T04:56:44;97425.69;;;22.76;100.00
34482;BME280;20720;48.886;9.388;2023-07-24T04:59:10;97441.34;;;22.56;100.00
34482;BME280;20720;48.886;9.388;2023-07-24T05:01:35;97446.81;;;23.27;100.00
34482;BME280;20720;48.886;9.388;2023-07-24T05:04:00;97434.56;;;23.12;100.00
34482;BME280;20720;48.886;9.388;2023-07-24T05:06:26;97426.56;;;22.85;100.00
34482;BME280;20720;48.886;9.388;2023-07-24T05:08:52;97429.28;;;23.07;100.00
34482;BME280;20720;48.886;9.388;2023-07-24T05:11:18;97440.66;;;23.26;100.00
34482;BME280;20720;48.886;9.388;2023-07-24T05:13:43;97443.69;;;23.11;100.00
34482;BME280;20720;48.886;9.388;2023-07-24T05:16:08;97439.00;;;23.30;100.00
34482;BME280;20720;48.886;9.388;2023-07-24T05:18:33;97439.81;;;23.75;100.00
34482;BME280;20720;48.886;9.388;2023-07-24T05:20:59;97447.22;;;23.20;100.00
34482;BME280;20720;48.886;9.388;2023-07-24T05:23:24;97452.63;;;24.00;97.96
34482;BME280;20720;48.886;9.388;2023-07-24T05:26:00;97458.78;;;24.84;93.51
34482;BME280;20720;48.886;9.388;2023-07-24T05:28:29;97463.44;;;25.35;86.84
34482;BME280;20720;48.886;9.388;2023-07-24T05:30:55;97461.69;;;24.66;88.37
34482;BME280;20720;48.886;9.388;2023-07-24T05:33:21;97462.34;;;24.41;91.15
34482;BME280;20720;48.886;9.388;2023-07-24T05:35:48;97459.56;;;24.54;89.86
34482;BME280;20720;48.886;9.388;2023-07-24T05:38:13;97469.34;;;24.50;90.35
34482;BME280;20720;48.886;9.388;2023-07-24T05:40:39;97469.19;;;24.47;92.74
34482;BME280;20720;48.886;9.388;2023-07-24T05:43:04;97492.22;;;24.17;93.40
34482;BME280;20720;48.886;9.388;2023-07-24T05:45:29;97495.41;;;24.19;94.07
34482;BME280;20720;48.886;9.388;2023-07-24T05:47:55;97500.41;;;24.12;93.54
34482;BME280;20720;48.886;9.388;2023-07-24T05:50:20;97504.06;;;23.94;96.11
34482;BME280;20720;48.886;9.388;2023-07-24T05:52:45;97506.53;;;24.26;94.23
34482;BME280;20720;48.886;9.388;2023-07-24T05:55:11;97514.44;;;24.31;94.41
34482;BME280;20720;48.886;9.388;2023-07-24T05:57:36;97519.50;;;23.88;97.47
34482;BME280;20720;48.886;9.388;2023-07-24T06:00:04;97519.16;;;24.25;95.82
34482;BME280;20720;48.886;9.388;2023-07-24T06:02:29;97518.59;;;24.37;92.43
34482;BME280;20720;48.886;9.388;2023-07-24T06:04:55;97518.91;;;23.28;100.00
34482;BME280;20720;48.886;9.388;2023-07-24T06:07:20;97519.94;;;23.32;100.00
34482;BME280;20720;48.886;9.388;2023-07-24T06:09:45;97519.06;;;23.95;100.00
34482;BME280;20720;48.886;9.388;2023-07-24T06:12:10;97512.25;;;24.33;100.00
34482;BME280;20720;48.886;9.388;2023-07-24T06:14:35;97521.13;;;23.98;100.00
34482;BME280;20720;48.886;9.388;2023-07-24T06:17:01;97523.97;;;24.15;100.00
34482;BME280;20720;48.886;9.388;2023-07-24T06:19:26;97524.88;;;24.33;100.00
34482;BME280;20720;48.886;9.388;2023-07-24T06:21:51;97522.19;;;24.63;100.00
34482;BME280;20720;48.886;9.388;2023-07-24T06:24:16;97525.25;;;24.17;100.00
34482;BME280;20720;48.886;9.388;2023-07-24T06:26:43;97507.63;;;23.31;100.00
34482;BME280;20720;48.886;9.388;2023-07-24T06:29:08;97495.75;;;23.82;100.00
34482;BME280;20720;48.886;9.388;2023-07-24T06:31:33;97489.47;;;23.51;100.00
34482;BME280;20720;48.886;9.388;2023-07-24T06:33:59;97487.56;;;23.87;100.00
34482;BME280;20720;48.886;9.388;2023-07-24T06:36:24;97486.25;;;24.20;100.00
34482;BME280;20720;48.886;9.388;2023-07-24T06:38:49;97489.50;;;24.70;100.00
34482;BME280;20720;48.886;9.388;2023-07-24T06:41:14;97476.75;;;24.14;100.00
34482;BME280;20720;48.886;9.388;2023-07-24T06:43:41;97481.50;;;24.48;100.00
34482;BME280;20720;48.886;9.388;2023-07-24T06:46:07;97485.75;;;25.18;100.00
34482;BME280;20720;48.886;9.388;2023-07-24T06:48:32;97483.81;;;24.10;100.00
34482;BME280;20720;48.886;9.388;2023-07-24T06:50:57;97469.53;;;24.23;100.00
34482;BME280;20720;48.886;9.388;2023-07-24T06:53:22;97465.69;;;24.46;100.00
34482;BME280;20720;48.886;9.388;2023-07-24T06:55:48;97468.94;;;24.65;100.00
34482;BME280;20720;48.886;9.388;2023-07-24T06:58:13;97471.19;;;24.72;100.00
34482;BME280;20720;48.886;9.388;2023-07-24T07:00:38;97467.81;;;24.66;100.00
34482;BME280;20720;48.886;9.388;2023-07-24T07:03:03;97467.22;;;25.17;100.00
34482;BME280;20720;48.886;9.388;2023-07-24T07:05:31;97474.72;;;25.80;88.17
34482;BME280;20720;48.886;9.388;2023-07-24T07:07:56;97483.59;;;25.89;90.08
34482;BME280;20720;48.886;9.388;2023-07-24T07:10:22;97477.88;;;25.99;87.64
34482;BME280;20720;48.886;9.388;2023-07-24T07:12:47;97474.69;;;26.23;86.17
34482;BME280;20720;48.886;9.388;2023-07-24T07:15:12;97472.03;;;25.88;87.80
34482;BME280;20720;48.886;9.388;2023-07-24T07:17:37;97474.97;;;26.38;84.54
34482;BME280;20720;48.886;9.388;2023-07-24T07:20:03;97486.31;;;26.61;82.42
34482;BME280;20720;48.886;9.388;2023-07-24T07:22:29;97491.97;;;26.30;84.07
34482;BME280;20720;48.886;9.388;2023-07-24T07:24:54;97500.38;;;26.20;82.45
34482;BME280;20720;48.886;9.388;2023-07-24T07:27:19;97490.72;;;26.65;83.18
34482;BME280;20720;48.886;9.388;2023-07-24T07:29:44;97503.75;;;26.72;80.73
34482;BME280;20720;48.886;9.388;2023-07-24T07:32:09;97513.53;;;26.76;82.09
34482;BME280;20720;48.886;9.388;2023-07-24T07:34:35;97519.53;;;26.36;82.51
34482;BME280;20720;48.886;9.388;2023-07-24T07:37:01;97520.03;;;26.12;80.56
34482;BME280;20720;48.886;9.388;2023-07-24T07:39:26;97523.44;;;25.36;84.48
34482;BME280;20720;48.886;9.388;2023-07-24T07:41:51;97522.56;;;26.00;82.88
34482;BME280;20720;48.886;9.388;2023-07-24T07:44:17;97530.75;;;25.61;85.68
34482;BME280;20720;48.886;9.388;2023-07-24T07:46:42;97533.72;;;24.94;88.46
34482;BME280;20720;48.886;9.388;2023-07-24T07:49:08;97538.09;;;24.73;90.80
34482;BME280;20720;48.886;9.388;2023-07-24T07:51:33;97545.19;;;25.08;89.23
34482;BME280;20720;48.886;9.388;2023-07-24T07:53:59;97538.72;;;25.18;87.96
34482;BME280;20720;48.886;9.388;2023-07-24T07:56:24;97550.41;;;25.13;87.82
34482;BME280;20720;48.886;9.388;2023-07-24T07:58:49;97556.75;;;25.57;87.33
34482;BME280;20720;48.886;9.388;2023-07-24T08:01:14;97560.97;;;25.01;89.29
34482;BME280;20720;48.886;9.388;2023-07-24T08:03:40;97562.03;;;25.31;87.91
34482;BME280;20720;48.886;9.388;2023-07-24T08:06:05;97565.63;;;25.27;88.33
34482;BME280;20720;48.886;9.388;2023-07-24T08:08:31;97563.25;;;25.16;90.42
34482;BME280;20720;48.886;9.388;2023-07-24T08:10:56;97575.88;;;25.07;92.21
34482;BME280;20720;48.886;9.388;2023-07-24T08:13:22;97577.91;;;25.50;92.15
34482;BME280;20720;48.886;9.388;2023-07-24T08:15:47;97579.66;;;25.06;94.01
34482;BME280;20720;48.886;9.388;2023-07-24T08:18:12;97590.59;;;24.79;96.85
34482;BME280;20720;48.886;9.388;2023-07-24T08:20:38;97602.47;;;24.56;100.00
34482;BME280;20720;48.886;9.388;2023-07-24T08:23:06;97594.78;;;24.41;100.00
34482;BME280;20720;48.886;9.388;2023-07-24T08:25:31;97582.31;;;24.23;100.00
34482;BME280;20720;48.886;9.388;2023-07-24T08:27:56;97572.41;;;24.54;100.00
34482;BME280;20720;48.886;9.388;2023-07-24T08:30:21;97564.31;;;23.88;100.00
34482;BME280;20720;48.886;9.388;2023-07-24T08:32:47;97563.81;;;24.21;100.00
34482;BME280;20720;48.886;9.388;2023-07-24T08:35:15;97560.47;;;24.16;100.00
34482;BME280;20720;48.886;9.388;2023-07-24T08:37:42;97561.28;;;23.81;100.00
34482;BME280;20720;48.886;9.388;2023-07-24T08:40:09;97533.78;;;23.97;100.00
34482;BME280;20720;48.886;9.388;2023-07-24T08:42:38;97482.47;;;23.99;100.00
34482;BME280;20720;48.886;9.388;2023-07-24T08:45:04;97471.41;;;24.00;100.00
34482;BME280;20720;48.886;9.388;2023-07-24T08:47:30;97477.22;;;23.94;100.00
34482;BME280;20720;48.886;9.388;2023-07-24T08:49:55;97433.22;;;22.74;100.00
34482;BME280;20720;48.886;9.388;2023-07-24T08:52:21;97439.16;;;23.70;100.00
34482;BME280;20720;48.886;9.388;2023-07-24T08:54:48;97434.19;;;24.30;100.00
34482;BME280;20720;48.886;9.388;2023-07-24T08:57:14;97429.81;;;24.42;100.00
34482;BME280;20720;48.886;9.388;2023-07-24T08:59:39;97432.16;;;24.74;100.00
34482;BME280;20720;48.886;9.388;2023-07-24T09:02:05;97410.31;;;24.67;100.00
34482;BME280;20720;48.886;9.388;2023-07-24T09:04:30;97399.25;;;24.60;100.00
34482;BME280;20720;48.886;9.388;2023-07-24T09:06:57;97401.91;;;24.21;100.00
34482;BME280;20720;48.886;9.388;2023-07-24T09:09:23;97404.09;;;24.97;100.00
34482;BME280;20720;48.886;9.388;2023-07-24T09:11:50;97404.44;;;25.13;100.00
34482;BME280;20720;48.886;9.388;2023-07-24T09:14:25;97414.25;;;25.52;100.00
34482;BME280;20720;48.886;9.388;2023-07-24T09:17:08;97421.53;;;25.77;100.00
34482;BME280;20720;48.886;9.388;2023-07-24T09:19:34;97432.47;;;25.46;100.00
34482;BME280;20720;48.886;9.388;2023-07-24T09:22:14;97427.56;;;25.57;100.00
34482;BME280;20720;48.886;9.388;2023-07-24T09:24:55;97433.38;;;25.76;100.00
34482;BME280;20720;48.886;9.388;2023-07-24T09:27:24;97441.41;;;26.27;100.00
34482;BME280;20720;48.886;9.388;2023-07-24T09:29:51;97429.94;;;26.39;100.00
34482;BME280;20720;48.886;9.388;2023-07-24T09:32:20;97431.09;;;26.75;100.00
34482;BME280;20720;48.886;9.388;2023-07-24T09:34:46;97434.78;;;25.99;100.00
34482;BME280;20720;48.886;9.388;2023-07-24T09:37:30;97439.47;;;26.36;100.00
34482;BME280;20720;48.886;9.388;2023-07-24T09:39:56;97432.56;;;26.93;100.00
34482;BME280;20720;48.886;9.388;2023-07-24T09:42:31;97442.41;;;27.48;100.00
34482;BME280;20720;48.886;9.388;2023-07-24T09:44:57;97452.59;;;27.13;100.00
34482;BME280;20720;48.886;9.388;2023-07-24T09:47:22;97463.59;;;27.99;100.00
34482;BME280;20720;48.886;9.388;2023-07-24T09:49:48;97473.28;;;27.38;100.00
34482;BME280;20720;48.886;9.388;2023-07-24T09:52:14;97489.78;;;26.06;100.00
34482;BME280;20720;48.886;9.388;2023-07-24T09:54:52;97480.41;;;26.04;100.00
34482;BME280;20720;48.886;9.388;2023-07-24T09:57:20;97472.91;;;26.35;100.00
34482;BME280;20720;48.886;9.388;2023-07-24T09:59:46;97482.63;;;25.93;100.00
34482;BME280;20720;48.886;9.388;2023-07-24T10:02:13;97492.31;;;26.66;100.00
34482;BME280;20720;48.886;9.388;2023-07-24T10:04:40;97512.84;;;26.33;100.00
34482;BME280;20720;48.886;9.388;2023-07-24T10:07:06;97505.66;;;26.71;100.00
34482;BME280;20720;48.886;9.388;2023-07-24T10:09:32;97516.28;;;27.06;100.00
34482;BME280;20720;48.886;9.388;2023-07-24T10:11:58;97524.69;;;27.04;100.00
34482;BME280;20720;48.886;9.388;2023-07-24T10:14:24;97535.56;;;26.87;100.00
34482;BME280;20720;48.886;9.388;2023-07-24T10:16:50;97531.97;;;25.38;100.00
34482;BME280;20720;48.886;9.388;2023-07-24T10:19:20;97538.06;;;25.86;100.00
34482;BME280;20720;48.886;9.388;2023-07-24T10:21:47;97545.69;;;25.19;100.00
34482;BME280;20720;48.886;9.388;2023-07-24T10:24:14;97546.91;;;25.04;100.00
34482;BME280;20720;48.886;9.388;2023-07-24T10:26:40;97543.97;;;24.84;100.00
34482;BME280;20720;48.886;9.388;2023-07-24T10:29:05;97546.28;;;25.47;100.00
34482;BME280;20720;48.886;9.388;2023-07-24T10:31:31;97556.59;;;25.62;100.00
34482;BME280;20720;48.886;9.388;2023-07-24T10:34:06;97537.44;;;25.89;100.00
34482;BME280;20720;48.886;9.388;2023-07-24T10:36:36;97536.50;;;25.68;100.00
34482;BME280;20720;48.886;9.388;2023-07-24T10:39:02;97543.94;;;25.96;100.00
34482;BME280;20720;48.886;9.388;2023-07-24T10:41:37;97536.50;;;25.68;100.00
34482;BME280;20720;48.886;9.388;2023-07-24T10:44:03;97534.81;;;25.33;100.00
34482;BME280;20720;48.886;9.388;2023-07-24T10:46:41;97527.13;;;25.48;100.00
34482;BME280;20720;48.886;9.388;2023-07-24T10:49:11;97524.16;;;24.71;100.00
34482;BME280;20720;48.886;9.388;2023-07-24T10:51:37;97531.88;;;24.42;100.00
34482;BME280;20720;48.886;9.388;2023-07-24T10:54:05;97502.06;;;23.99;100.00
34482;BME280;20720;48.886;9.388;2023-07-24T10:56:30;97496.81;;;23.59;100.00
34482;BME280;20720;48.886;9.388;2023-07-24T10:58:56;97487.13;;;23.49;100.00
34482;BME280;20720;48.886;9.388;2023-07-24T11:01:21;97485.84;;;23.47;100.00
34482;BME280;20720;48.886;9.388;2023-07-24T11:03:48;97477.03;;;23.32;100.00
34482;BME280;20720;48.886;9.388;2023-07-24T11:06:19;97481.00;;;23.35;100.00
34482;BME280;20720;48.886;9.388;2023-07-24T11:09:02;97471.69;;;23.05;100.00
34482;BME280;20720;48.886;9.388;2023-07-24T11:11:34;97471.09;;;22.81;100.00
34482;BME280;20720;48.886;9.388;2023-07-24T11:14:01;97452.03;;;22.56;100.00
34482;BME280;20720;48.886;9.388;2023-07-24T11:16:27;97453.69;;;23.19;100.00
34482;BME280;20720;48.886;9.388;2023-07-24T11:18:55;97425.88;;;22.66;100.00
34482;BME280;20720;48.886;9.388;2023-07-24T11:21:22;97427.53;;;22.48;100.00
34482;BME280;20720;48.886;9.388;2023-07-24T11:23:55;97413.56;;;22.38;100.00
34482;BME280;20720;48.886;9.388;2023-07-24T11:26:22;97389.75;;;22.50;100.00
34482;BME280;20720;48.886;9.388;2023-07-24T11:28:51;97354.66;;;22.65;100.00
34482;BME280;20720;48.886;9.388;2023-07-24T11:31:17;97333.81;;;22.62;100.00
34482;BME280;20720;48.886;9.388;2023-07-24T11:33:46;97333.03;;;22.48;100.00
34482;BME280;20720;48.886;9.388;2023-07-24T11:36:13;97344.75;;;22.38;100.00
34482;BME280;20720;48.886;9.388;2023-07-24T11:38:40;97329.13;;;22.54;100.00
34482;BME280;20720;48.886;9.388;2023-07-24T11:41:07;97304.47;;;22.30;100.00
34482;BME280;20720;48.886;9.388;2023-07-24T11:43:33;97298.66;;;22.77;100.00
34482;BME280;20720;48.886;9.388;2023-07-24T11:45:58;97267.72;;;22.71;100.00
34482;BME280;20720;48.886;9.388;2023-07-24T11:48:24;97273.84;;;23.29;100.00
34482;BME280;20720;48.886;9.388;2023-07-24T11:50:51;97284.81;;;23.19;100.00
34482;BME280;20720;48.886;9.388;2023-07-24T11:53:28;97337.09;;;24.53;100.00
34482;BME280;20720;48.886;9.388;2023-07-24T11:55:55;97350.34;;;25.40;100.00
34482;BME280;20720;48.886;9.388;2023-07-24T11:58:22;97365.97;;;26.27;100.00
34482;BME280;20720;48.886;9.388;2023-07-24T12:00:48;97370.59;;;25.55;100.00
34482;BME280;20720;48.886;9.388;2023-07-24T12:03:18;97360.56;;;24.31;100.00
34482;BME280;20720;48.886;9.388;2023-07-24T12:05:44;97383.91;;;24.13;100.00
34482;BME280;20720;48.886;9.388;2023-07-24T12:08:10;97382.06;;;23.78;100.00
34482;BME280;20720;48.886;9.388;2023-07-24T12:10:37;97378.03;;;23.22;100.00
34482;BME280;20720;48.886;9.388;2023-07-24T12:13:02;97380.28;;;23.43;100.00
34482;BME280;20720;48.886;9.388;2023-07-24T12:15:28;97374.66;;;23.30;100.00
34482;BME280;20720;48.886;9.388;2023-07-24T12:17:53;97375.84;;;23.24;100.00
34482;BME280;20720;48.886;9.388;2023-07-24T12:20:18;97378.97;;;23.04;100.00
34482;BME280;20720;48.886;9.388;2023-07-24T12:22:44;97365.41;;;23.37;100.00
34482;BME280;20720;48.886;9.388;2023-07-24T12:25:09;97383.97;;;23.55;100.00
34482;BME280;20720;48.886;9.388;2023-07-24T12:27:34;97388.81;;;23.45;100.00
34482;BME280;20720;48.886;9.388;2023-07-24T12:30:00;97408.94;;;23.20;100.00
34482;BME280;20720;48.886;9.388;2023-07-24T12:32:26;97399.66;;;23.62;100.00
34482;BME280;20720;48.886;9.388;2023-07-24T12:34:52;97405.94;;;23.21;100.00
34482;BME280;20720;48.886;9.388;2023-07-24T12:37:18;97408.50;;;23.26;100.00
34482;BME280;20720;48.886;9.388;2023-07-24T12:39:44;97427.44;;;22.94;100.00
34482;BME280;20720;48.886;9.388;2023-07-24T12:42:10;97415.66;;;23.31;100.00
34482;BME280;20720;48.886;9.388;2023-07-24T12:44:36;97425.84;;;23.87;100.00
34482;BME280;20720;48.886;9.388;2023-07-24T12:47:01;97427.88;;;23.23;100.00
34482;BME280;20720;48.886;9.388;2023-07-24T12:49:26;97409.78;;;23.29;100.00